createdAt,value
2018-11-25T00:02:04.836Z,3.70
2018-11-25T00:04:39.312Z,3.60
2018-11-25T00:07:13.771Z,3.60
2018-11-25T00:09:48.201Z,3.50
2018-11-25T00:12:22.544Z,3.50
2018-11-25T00:14:56.861Z,3.50
2018-11-25T00:17:31.268Z,3.60
2018-11-25T00:20:11.288Z,3.60
2018-11-25T00:22:45.632Z,3.60
2018-11-25T00:25:20.075Z,3.60
2018-11-25T00:27:54.656Z,3.70
2018-11-25T00:30:29.351Z,3.70
2018-11-25T00:33:03.961Z,3.70
2018-11-25T00:35:38.344Z,3.70
2018-11-25T00:38:12.797Z,3.70
2018-11-25T00:40:47.175Z,3.70
2018-11-25T00:43:21.501Z,3.70
2018-11-25T00:45:55.968Z,3.80
2018-11-25T00:48:30.382Z,3.80
2018-11-25T00:51:05.102Z,3.80
2018-11-25T00:53:39.599Z,3.80
2018-11-25T00:56:14.007Z,3.80
2018-11-25T00:58:48.424Z,3.80
2018-11-25T01:01:23.172Z,3.80
2018-11-25T01:03:57.555Z,3.80
2018-11-25T01:06:32.104Z,3.80
2018-11-25T01:09:08.647Z,3.90
2018-11-25T01:11:42.968Z,3.90
2018-11-25T01:14:17.463Z,3.90
2018-11-25T01:16:51.832Z,4.00
2018-11-25T01:19:26.260Z,4.00
2018-11-25T01:22:00.739Z,4.00
2018-11-25T01:24:34.996Z,4.10
2018-11-25T01:27:09.244Z,4.10
2018-11-25T01:29:43.512Z,4.10
2018-11-25T01:32:17.800Z,4.10
2018-11-25T01:34:53.055Z,4.10
2018-11-25T01:37:26.568Z,4.20
2018-11-25T01:40:00.837Z,4.20
2018-11-25T01:42:35.170Z,4.20
2018-11-25T01:45:10.727Z,4.20
2018-11-25T01:47:45.073Z,4.10
2018-11-25T01:50:19.487Z,4.10
2018-11-25T01:52:53.796Z,4.10
2018-11-25T01:55:28.103Z,4.10
2018-11-25T01:58:02.443Z,4.10
2018-11-25T02:00:36.875Z,4.10
2018-11-25T02:03:11.126Z,4.10
2018-11-25T02:05:45.394Z,4.10
2018-11-25T02:08:19.619Z,4.00
2018-11-25T02:10:54.084Z,4.00
2018-11-25T02:13:28.558Z,4.00
2018-11-25T02:16:02.946Z,4.00
2018-11-25T02:18:37.390Z,4.00
2018-11-25T02:21:11.677Z,3.90
2018-11-25T02:23:45.996Z,3.90
2018-11-25T02:26:20.223Z,3.80
2018-11-25T02:28:54.586Z,3.80
2018-11-25T02:31:28.928Z,3.70
2018-11-25T02:34:03.256Z,3.70
2018-11-25T02:36:37.686Z,3.70
2018-11-25T02:39:12.387Z,3.60
2018-11-25T02:41:46.975Z,3.50
2018-11-25T02:44:21.602Z,3.50
2018-11-25T02:46:56.162Z,3.50
2018-11-25T02:49:30.565Z,3.40
2018-11-25T02:52:04.992Z,3.50
2018-11-25T02:54:39.437Z,3.40
2018-11-25T02:57:13.759Z,3.50
2018-11-25T02:59:48.181Z,3.40
2018-11-25T03:02:22.648Z,3.50
2018-11-25T03:04:57.098Z,3.50
2018-11-25T03:07:31.348Z,3.60
2018-11-25T03:10:06.287Z,3.60
2018-11-25T03:12:40.547Z,3.50
2018-11-25T03:15:16.429Z,3.50
2018-11-25T03:17:50.880Z,3.50
2018-11-25T03:20:25.367Z,3.50
2018-11-25T03:22:59.750Z,3.60
2018-11-25T03:25:34.103Z,3.60
2018-11-25T03:28:08.464Z,3.60
2018-11-25T03:30:42.783Z,3.60
2018-11-25T03:33:17.126Z,3.60
2018-11-25T03:35:51.588Z,3.60
2018-11-25T03:38:25.888Z,3.60
2018-11-25T03:41:00.129Z,3.50
2018-11-25T03:43:34.413Z,3.60
2018-11-25T03:46:08.727Z,3.50
2018-11-25T03:48:43.101Z,3.60
2018-11-25T03:51:17.518Z,3.50
2018-11-25T03:53:51.838Z,3.50
2018-11-25T03:56:26.129Z,3.50
2018-11-25T03:59:00.441Z,3.50
2018-11-25T04:01:34.801Z,3.50
2018-11-25T04:04:09.113Z,3.50
2018-11-25T04:06:43.397Z,3.50
2018-11-25T04:09:17.693Z,3.60
2018-11-25T04:11:52.110Z,3.50
2018-11-25T04:14:26.537Z,3.50
2018-11-25T04:17:00.893Z,3.50
2018-11-25T04:19:35.367Z,3.50
2018-11-25T04:22:09.801Z,3.50
2018-11-25T04:24:44.285Z,3.50
2018-11-25T04:27:18.623Z,3.40
2018-11-25T04:29:52.943Z,3.40
2018-11-25T04:32:27.203Z,3.40
2018-11-25T04:35:01.663Z,3.30
2018-11-25T04:37:35.927Z,3.40
2018-11-25T04:40:11.358Z,3.40
2018-11-25T04:42:45.718Z,3.30
2018-11-25T04:45:20.082Z,3.20
2018-11-25T04:47:54.365Z,3.20
2018-11-25T04:50:28.916Z,3.10
2018-11-25T04:53:03.373Z,3.20
2018-11-25T04:55:37.669Z,3.10
2018-11-25T04:58:12.112Z,3.10
2018-11-25T05:00:46.425Z,3.10
2018-11-25T05:03:20.748Z,3.10
2018-11-25T05:05:55.234Z,3.10
2018-11-25T05:08:29.651Z,3.10
2018-11-25T05:11:03.879Z,3.00
2018-11-25T05:13:38.298Z,3.10
2018-11-25T05:16:12.669Z,3.00
2018-11-25T05:18:46.876Z,3.00
2018-11-25T05:21:21.358Z,3.00
2018-11-25T05:23:55.595Z,3.00
2018-11-25T05:26:30.063Z,3.00
2018-11-25T05:29:04.496Z,3.00
2018-11-25T05:31:38.739Z,3.00
2018-11-25T05:34:13.180Z,3.00
2018-11-25T05:36:47.672Z,2.90
2018-11-25T05:39:22.024Z,3.00
2018-11-25T05:41:56.506Z,3.00
2018-11-25T05:44:30.747Z,3.00
2018-11-25T05:47:05.075Z,3.00
2018-11-25T05:49:39.342Z,3.00
2018-11-25T05:52:13.687Z,3.10
2018-11-25T05:54:48.018Z,3.00
2018-11-25T05:57:22.254Z,3.10
2018-11-25T05:59:56.692Z,3.10
2018-11-25T06:02:31.113Z,3.00
2018-11-25T06:05:05.734Z,3.10
2018-11-25T06:07:40.540Z,3.10
2018-11-25T06:10:14.878Z,3.10
2018-11-25T06:12:49.190Z,3.10
2018-11-25T06:15:23.502Z,3.10
2018-11-25T06:17:57.735Z,3.10
2018-11-25T06:20:32.042Z,3.10
2018-11-25T06:23:06.286Z,3.00
2018-11-25T06:25:40.732Z,3.00
2018-11-25T06:28:15.045Z,3.00
2018-11-25T06:30:49.468Z,3.00
2018-11-25T06:33:23.885Z,3.00
2018-11-25T06:35:58.235Z,3.00
2018-11-25T06:38:32.670Z,3.00
2018-11-25T06:41:07.149Z,2.90
2018-11-25T06:43:41.560Z,3.00
2018-11-25T06:46:15.944Z,3.00
2018-11-25T06:48:54.805Z,2.90
2018-11-25T06:51:24.794Z,3.00
2018-11-25T06:53:59.336Z,3.00
2018-11-25T06:56:33.678Z,3.00
2018-11-25T06:59:08.016Z,3.00
2018-11-25T07:01:42.585Z,3.00
2018-11-25T07:04:17.010Z,2.90
2018-11-25T07:06:51.530Z,2.90
2018-11-25T07:09:25.769Z,2.90
2018-11-25T07:12:00.061Z,2.80
2018-11-25T07:14:34.412Z,2.80
2018-11-25T07:17:08.754Z,2.80
2018-11-25T07:19:43.046Z,2.80
2018-11-25T07:22:17.613Z,2.80
2018-11-25T07:24:52.017Z,2.80
2018-11-25T07:27:26.473Z,2.80
2018-11-25T07:30:03.521Z,2.80
2018-11-25T07:32:35.248Z,2.80
2018-11-25T07:35:09.673Z,2.80
2018-11-25T07:37:44.063Z,2.80
2018-11-25T07:40:19.332Z,2.80
2018-11-25T07:42:53.553Z,2.80
2018-11-25T07:45:30.450Z,2.80
2018-11-25T07:48:02.081Z,2.80
2018-11-25T07:50:36.377Z,2.70
2018-11-25T07:53:10.751Z,2.60
2018-11-25T07:55:45.080Z,2.60
2018-11-25T07:58:19.472Z,2.60
2018-11-25T08:00:53.975Z,2.70
2018-11-25T08:03:28.228Z,2.70
2018-11-25T08:06:02.477Z,2.80
2018-11-25T08:08:36.876Z,2.80
2018-11-25T08:11:11.143Z,2.80
2018-11-25T08:13:45.467Z,2.90
2018-11-25T08:16:19.998Z,2.90
2018-11-25T08:18:54.248Z,2.90
2018-11-25T08:21:28.650Z,2.80
2018-11-25T08:24:02.902Z,2.80
2018-11-25T08:26:37.244Z,2.80
2018-11-25T08:29:11.590Z,2.80
2018-11-25T08:31:45.810Z,2.90
2018-11-25T08:34:21.331Z,3.00
2018-11-25T08:36:54.472Z,3.00
2018-11-25T08:39:28.753Z,3.00
2018-11-25T08:42:03.155Z,3.00
2018-11-25T08:44:37.432Z,3.00
2018-11-25T08:47:11.695Z,3.00
2018-11-25T08:49:46.048Z,2.90
2018-11-25T08:52:20.284Z,2.90
2018-11-25T08:54:54.997Z,2.80
2018-11-25T08:57:28.755Z,2.80
2018-11-25T09:00:03.089Z,2.80
2018-11-25T09:02:37.429Z,2.80
2018-11-25T09:05:12.832Z,2.80
2018-11-25T09:07:47.199Z,2.90
2018-11-25T09:10:22.101Z,2.90
2018-11-25T09:12:57.444Z,2.90
2018-11-25T09:15:31.788Z,2.90
2018-11-25T09:18:06.149Z,3.00
2018-11-25T09:20:40.530Z,3.00
2018-11-25T09:23:14.865Z,3.10
2018-11-25T09:25:49.304Z,3.10
2018-11-25T09:28:23.618Z,3.10
2018-11-25T09:30:57.827Z,3.10
2018-11-25T09:33:32.290Z,3.20
2018-11-25T09:36:06.586Z,3.20
2018-11-25T09:38:40.841Z,3.20
2018-11-25T09:41:15.116Z,3.10
2018-11-25T09:43:49.349Z,3.10
2018-11-25T09:46:23.656Z,3.10
2018-11-25T09:48:58.021Z,3.10
2018-11-25T09:51:32.275Z,3.20
2018-11-25T09:54:06.554Z,3.20
2018-11-25T09:56:40.827Z,3.20
2018-11-25T09:59:15.026Z,3.20
2018-11-25T10:01:49.398Z,3.20
2018-11-25T10:04:23.714Z,3.20
2018-11-25T10:06:58.044Z,3.20
2018-11-25T10:09:32.305Z,3.20
2018-11-25T10:12:06.695Z,3.20
2018-11-25T10:14:40.972Z,3.20
2018-11-25T10:17:15.337Z,3.20
2018-11-25T10:19:49.533Z,3.20
2018-11-25T10:22:23.836Z,3.10
2018-11-25T10:24:58.460Z,3.10
2018-11-25T10:27:32.864Z,3.10
2018-11-25T10:30:11.967Z,3.00
2018-11-25T10:32:47.523Z,3.00
2018-11-25T10:35:21.756Z,3.00
2018-11-25T10:37:56.142Z,3.00
2018-11-25T10:40:30.565Z,3.00
2018-11-25T10:43:04.882Z,3.00
2018-11-25T10:45:39.373Z,3.00
2018-11-25T10:48:13.656Z,3.10
2018-11-25T10:50:51.226Z,3.10
2018-11-25T10:53:22.448Z,3.20
2018-11-25T10:55:56.794Z,3.20
2018-11-25T10:58:31.062Z,3.20
2018-11-25T11:01:11.442Z,3.20
2018-11-25T11:03:51.348Z,3.20
2018-11-25T11:06:31.594Z,3.20
2018-11-25T11:09:07.112Z,3.30
2018-11-25T11:11:41.580Z,3.30
2018-11-25T11:14:15.978Z,3.30
2018-11-25T11:16:54.015Z,3.40
2018-11-25T11:19:24.732Z,3.40
2018-11-25T11:21:59.143Z,3.40
2018-11-25T11:24:33.785Z,3.50
2018-11-25T11:27:08.235Z,3.50
2018-11-25T11:29:42.649Z,3.60
2018-11-25T11:32:17.315Z,3.60
2018-11-25T11:34:51.560Z,3.70
2018-11-25T11:37:26.023Z,3.70
2018-11-25T11:40:00.473Z,3.80
2018-11-25T11:42:34.865Z,3.90
2018-11-25T11:45:11.536Z,3.90
2018-11-25T11:47:45.971Z,3.90
2018-11-25T11:50:21.503Z,3.90
2018-11-25T11:52:55.821Z,3.90
2018-11-25T11:55:30.230Z,3.90
2018-11-25T11:58:04.475Z,3.90
2018-11-25T12:00:38.839Z,4.00
2018-11-25T12:03:13.160Z,4.00
2018-11-25T12:05:47.427Z,4.00
2018-11-25T12:08:21.644Z,4.10
2018-11-25T12:10:55.980Z,4.10
2018-11-25T12:13:30.193Z,4.20
2018-11-25T12:16:04.555Z,4.20
2018-11-25T12:18:38.939Z,4.20
2018-11-25T12:21:13.276Z,4.30
2018-11-25T12:23:47.674Z,4.30
2018-11-25T12:26:22.084Z,4.30
2018-11-25T12:28:56.347Z,4.30
2018-11-25T12:31:30.817Z,4.40
2018-11-25T12:34:05.174Z,4.40
2018-11-25T12:36:39.656Z,4.40
2018-11-25T12:39:13.958Z,4.40
2018-11-25T12:41:48.231Z,4.40
2018-11-25T12:44:25.743Z,4.40
2018-11-25T12:46:57.225Z,4.40
2018-11-25T12:49:31.698Z,4.40
2018-11-25T12:52:06.211Z,4.50
2018-11-25T12:54:40.548Z,4.50
2018-11-25T12:57:14.873Z,4.50
2018-11-25T12:59:49.260Z,4.50
2018-11-25T13:02:23.669Z,4.50
2018-11-25T13:04:58.170Z,4.50
2018-11-25T13:07:32.606Z,4.40
2018-11-25T13:10:07.485Z,4.40
2018-11-25T13:12:42.089Z,4.50
2018-11-25T13:15:16.542Z,4.50
2018-11-25T13:17:50.888Z,4.50
2018-11-25T13:20:25.197Z,4.50
2018-11-25T13:22:59.654Z,4.50
2018-11-25T13:25:33.967Z,4.50
2018-11-25T13:28:08.337Z,4.40
2018-11-25T13:30:42.629Z,4.40
2018-11-25T13:33:17.066Z,4.40
2018-11-25T13:35:51.529Z,4.40
2018-11-25T13:38:25.792Z,4.40
2018-11-25T13:41:00.126Z,4.40
2018-11-25T13:43:34.359Z,4.40
2018-11-25T13:46:08.902Z,4.40
2018-11-25T13:48:43.188Z,4.30
2018-11-25T13:51:17.712Z,4.30
2018-11-25T13:53:52.197Z,4.30
2018-11-25T13:56:27.165Z,4.30
2018-11-25T13:59:01.473Z,4.30
2018-11-25T14:01:35.871Z,4.30
2018-11-25T14:04:10.314Z,4.30
2018-11-25T14:06:44.933Z,4.30
2018-11-25T14:09:19.298Z,4.30
2018-11-25T14:11:53.735Z,4.30
2018-11-25T14:14:28.151Z,4.30
2018-11-25T14:17:02.584Z,4.30
2018-11-25T14:19:36.837Z,4.30
2018-11-25T14:22:11.135Z,4.30
2018-11-25T14:24:45.440Z,4.20
2018-11-25T14:27:19.754Z,4.20
2018-11-25T14:29:54.077Z,4.20
2018-11-25T14:32:28.584Z,4.20
2018-11-25T14:35:03.031Z,4.20
2018-11-25T14:37:37.295Z,4.20
2018-11-25T14:40:13.129Z,4.10
2018-11-25T14:42:47.541Z,4.20
2018-11-25T14:45:21.919Z,4.20
2018-11-25T14:47:56.313Z,4.20
2018-11-25T14:50:30.545Z,4.20
2018-11-25T14:53:05.426Z,4.20
2018-11-25T14:55:39.867Z,4.20
2018-11-25T14:58:14.200Z,4.30
2018-11-25T15:00:48.491Z,4.30
2018-11-25T15:03:22.930Z,4.20
2018-11-25T15:05:57.243Z,4.30
2018-11-25T15:08:31.652Z,4.30
2018-11-25T15:11:05.944Z,4.30
2018-11-25T15:13:40.245Z,4.30
2018-11-25T15:16:15.371Z,4.30
2018-11-25T15:18:49.893Z,4.30
2018-11-25T15:21:24.162Z,4.30
2018-11-25T15:23:58.461Z,4.30
2018-11-25T15:26:32.960Z,4.30
2018-11-25T15:29:07.273Z,4.30
2018-11-25T15:31:41.546Z,4.30
2018-11-25T15:34:15.973Z,4.30
2018-11-25T15:36:50.377Z,4.30
2018-11-25T15:39:24.679Z,4.30
2018-11-25T15:41:59.318Z,4.30
2018-11-25T15:44:33.568Z,4.30
2018-11-25T15:47:08.405Z,4.30
2018-11-25T15:49:42.292Z,4.30
2018-11-25T15:52:16.660Z,4.30
2018-11-25T15:54:51.120Z,4.30
2018-11-25T15:57:25.465Z,4.30
2018-11-25T15:59:59.909Z,4.30
2018-11-25T16:02:34.278Z,4.30
2018-11-25T16:05:10.339Z,4.10
2018-11-25T16:07:44.567Z,4.00
2018-11-25T16:10:18.880Z,3.90
2018-11-25T16:12:53.395Z,4.00
2018-11-25T16:15:28.394Z,4.00
2018-11-25T16:18:02.793Z,4.00
2018-11-25T16:20:37.101Z,4.00
2018-11-25T16:23:11.490Z,4.10
2018-11-25T16:25:48.643Z,4.10
2018-11-25T16:28:27.083Z,4.10
2018-11-25T16:31:01.432Z,4.10
2018-11-25T16:33:35.867Z,4.10
2018-11-25T16:36:10.167Z,4.10
2018-11-25T16:38:44.607Z,4.10
2018-11-25T16:41:18.965Z,4.00
2018-11-25T16:43:53.410Z,4.00
2018-11-25T16:46:27.767Z,4.00
2018-11-25T16:49:02.101Z,4.10
2018-11-25T16:51:36.572Z,4.10
2018-11-25T16:54:13.679Z,4.10
2018-11-25T16:56:49.715Z,4.00
2018-11-25T16:59:24.689Z,3.90
2018-11-25T17:01:59.113Z,3.90
2018-11-25T17:04:33.540Z,3.90
2018-11-25T17:07:07.915Z,3.90
2018-11-25T17:09:42.180Z,3.90
2018-11-25T17:12:16.552Z,3.90
2018-11-25T17:14:50.940Z,3.70
2018-11-25T17:17:25.189Z,3.70
2018-11-25T17:19:59.600Z,3.80
2018-11-25T17:22:34.052Z,3.90
2018-11-25T17:25:09.895Z,3.90
2018-11-25T17:27:44.269Z,3.90
2018-11-25T17:30:19.619Z,3.90
2018-11-25T17:32:53.940Z,3.90
2018-11-25T17:35:29.789Z,3.80
2018-11-25T17:38:04.232Z,3.80
2018-11-25T17:40:39.117Z,3.90
2018-11-25T17:43:15.860Z,3.70
2018-11-25T17:45:50.329Z,3.60
2018-11-25T17:48:24.822Z,3.60
2018-11-25T17:50:59.117Z,3.50
2018-11-25T17:53:33.408Z,3.50
2018-11-25T17:56:07.769Z,3.40
2018-11-25T17:58:42.281Z,3.40
2018-11-25T18:01:16.645Z,3.40
2018-11-25T18:03:51.405Z,3.40
2018-11-25T18:06:25.714Z,3.40
2018-11-25T18:09:00.135Z,3.50
2018-11-25T18:11:34.456Z,3.50
2018-11-25T18:14:09.524Z,3.60
2018-11-25T18:16:43.861Z,3.70
2018-11-25T18:19:19.814Z,3.80
2018-11-25T18:21:57.351Z,3.80
2018-11-25T18:24:31.660Z,3.90
2018-11-25T18:27:06.131Z,3.90
2018-11-25T18:29:41.433Z,3.90
2018-11-25T18:32:16.028Z,3.90
2018-11-25T18:34:50.380Z,3.90
2018-11-25T18:37:24.708Z,4.00
2018-11-25T18:39:59.076Z,4.00
2018-11-25T18:42:33.441Z,4.00
2018-11-25T18:45:14.095Z,4.00
2018-11-25T18:47:49.591Z,4.00
2018-11-25T18:50:23.841Z,3.90
2018-11-25T18:52:58.287Z,3.90
2018-11-25T18:55:31.723Z,3.90
2018-11-25T18:58:06.366Z,3.80
2018-11-25T19:00:45.917Z,3.70
2018-11-25T19:03:20.155Z,3.70
2018-11-25T19:05:54.536Z,3.70
2018-11-25T19:08:29.025Z,3.70
2018-11-25T19:11:03.431Z,3.80
2018-11-25T19:13:37.639Z,3.80
2018-11-25T19:16:11.990Z,3.80
2018-11-25T19:18:46.296Z,3.60
2018-11-25T19:21:20.616Z,3.70
2018-11-25T19:23:54.935Z,3.70
2018-11-25T19:26:29.180Z,3.80
2018-11-25T19:29:03.605Z,3.70
2018-11-25T19:31:38.104Z,3.60
2018-11-25T19:34:12.570Z,3.70
2018-11-25T19:36:46.909Z,3.80
2018-11-25T19:39:21.312Z,3.80
2018-11-25T19:41:55.624Z,3.90
2018-11-25T19:44:29.937Z,3.90
2018-11-25T19:47:04.264Z,4.00
2018-11-25T19:49:38.646Z,4.00
2018-11-25T19:52:12.966Z,4.10
2018-11-25T19:54:47.419Z,4.10
2018-11-25T19:57:21.721Z,4.10
2018-11-25T19:59:56.055Z,4.10
2018-11-25T20:02:30.491Z,4.10
2018-11-25T20:05:05.992Z,4.10
2018-11-25T20:07:40.728Z,4.10
2018-11-25T20:10:17.023Z,4.10
2018-11-25T20:12:52.475Z,4.10
2018-11-25T20:15:26.909Z,4.00
2018-11-25T20:18:01.264Z,4.00
2018-11-25T20:20:35.656Z,4.10
2018-11-25T20:23:09.912Z,4.10
2018-11-25T20:25:44.185Z,4.10
2018-11-25T20:28:18.481Z,4.10
2018-11-25T20:30:52.964Z,4.10
2018-11-25T20:33:32.802Z,4.10
2018-11-25T20:36:07.319Z,4.10
2018-11-25T20:38:47.163Z,4.10
2018-11-25T20:41:21.497Z,4.10
2018-11-25T20:43:55.979Z,4.10
2018-11-25T20:46:35.788Z,4.10
2018-11-25T20:49:10.209Z,4.20
2018-11-25T20:51:49.993Z,4.20
2018-11-25T20:54:24.480Z,4.20
2018-11-25T20:56:58.917Z,4.20
2018-11-25T20:59:33.291Z,4.20
2018-11-25T21:02:07.615Z,4.20
2018-11-25T21:04:42.045Z,4.10
2018-11-25T21:07:16.417Z,4.20
2018-11-25T21:09:50.884Z,4.20
2018-11-25T21:12:25.292Z,4.20
2018-11-25T21:14:59.696Z,4.20
2018-11-25T21:17:34.078Z,4.20
2018-11-25T21:20:15.430Z,4.20
2018-11-25T21:22:49.725Z,4.20
2018-11-25T21:25:24.159Z,4.20
2018-11-25T21:27:58.590Z,4.20
2018-11-25T21:30:33.085Z,4.20
2018-11-25T21:33:07.524Z,4.20
2018-11-25T21:35:41.991Z,4.20
2018-11-25T21:38:16.346Z,4.10
2018-11-25T21:40:50.585Z,4.10
2018-11-25T21:43:24.948Z,4.10
2018-11-25T21:45:59.287Z,4.10
2018-11-25T21:48:33.581Z,4.10
2018-11-25T21:51:07.909Z,4.00
2018-11-25T21:53:42.259Z,4.10
2018-11-25T21:56:16.587Z,4.10
2018-11-25T21:58:50.874Z,4.00
2018-11-25T22:01:25.254Z,3.90
2018-11-25T22:03:59.624Z,3.90
2018-11-25T22:06:34.003Z,3.90
2018-11-25T22:09:09.591Z,4.00
2018-11-25T22:11:44.075Z,4.10
2018-11-25T22:14:18.619Z,4.10
2018-11-25T22:16:53.226Z,4.10
2018-11-25T22:19:27.781Z,4.20
2018-11-25T22:22:02.460Z,4.20
2018-11-25T22:24:36.933Z,4.30
2018-11-25T22:27:11.329Z,4.30
2018-11-25T22:29:45.673Z,4.20
2018-11-25T22:32:20.121Z,4.20
2018-11-25T22:34:54.515Z,4.10
2018-11-25T22:37:29.039Z,4.10
2018-11-25T22:40:03.524Z,4.10
2018-11-25T22:42:38.650Z,4.20
2018-11-25T22:45:14.979Z,4.20
2018-11-25T22:47:49.495Z,4.20
2018-11-25T22:50:27.669Z,4.20
2018-11-25T22:52:58.474Z,4.30
2018-11-25T22:55:32.795Z,4.30
2018-11-25T22:58:07.133Z,4.20
2018-11-25T23:00:41.530Z,4.10
2018-11-25T23:03:16.033Z,4.00
2018-11-25T23:06:31.808Z,3.90
2018-11-25T23:09:07.881Z,3.80
2018-11-25T23:11:42.298Z,3.70
2018-11-25T23:14:16.780Z,3.70
2018-11-25T23:16:51.196Z,3.70
2018-11-25T23:19:25.552Z,3.80
2018-11-25T23:21:59.945Z,3.90
2018-11-25T23:24:34.465Z,3.90
2018-11-25T23:27:09.083Z,4.00
2018-11-25T23:29:43.505Z,4.00
2018-11-25T23:32:18.070Z,3.90
2018-11-25T23:34:52.490Z,3.80
2018-11-25T23:37:26.924Z,3.90
2018-11-25T23:40:01.581Z,3.80
2018-11-25T23:42:36.249Z,3.90
2018-11-25T23:45:13.058Z,3.90
2018-11-25T23:47:47.479Z,4.00
2018-11-25T23:50:22.006Z,4.00
2018-11-25T23:52:56.548Z,4.10
2018-11-25T23:55:30.910Z,4.10
2018-11-25T23:58:05.273Z,4.20
